createdAt,value
2022-10-14T00:00:08.157Z,13.60
2022-10-14T00:02:35.038Z,13.60
2022-10-14T00:05:01.749Z,13.60
2022-10-14T00:07:28.618Z,13.60
2022-10-14T00:09:55.386Z,13.60
2022-10-14T00:12:22.090Z,13.60
2022-10-14T00:14:49.061Z,13.60
2022-10-14T00:17:15.878Z,13.50
2022-10-14T00:19:42.535Z,13.60
2022-10-14T00:22:09.217Z,13.60
2022-10-14T00:24:35.938Z,13.60
2022-10-14T00:27:02.635Z,13.60
2022-10-14T00:29:29.429Z,13.60
2022-10-14T00:31:56.139Z,13.60
2022-10-14T00:34:22.955Z,13.60
2022-10-14T00:36:49.794Z,13.60
2022-10-14T00:39:16.779Z,13.70
2022-10-14T00:41:43.844Z,13.70
2022-10-14T00:44:13.544Z,13.70
2022-10-14T00:46:45.736Z,13.70
2022-10-14T00:49:16.897Z,13.70
2022-10-14T00:51:48.251Z,13.70
2022-10-14T00:54:18.679Z,13.70
2022-10-14T00:56:47.525Z,13.70
2022-10-14T00:59:15.302Z,13.70
2022-10-14T01:01:42.169Z,13.70
2022-10-14T01:04:08.943Z,13.70
2022-10-14T01:06:40.891Z,13.70
2022-10-14T01:09:31.682Z,13.70
2022-10-14T01:12:27.433Z,13.60
2022-10-14T01:15:19.275Z,13.60
2022-10-14T01:17:51.917Z,13.60
2022-10-14T01:20:59.644Z,13.60
2022-10-14T01:24:05.282Z,13.60
2022-10-14T01:27:07.869Z,13.60
2022-10-14T01:30:04.819Z,13.60
2022-10-14T01:32:42.691Z,13.60
2022-10-14T01:35:28.243Z,13.60
2022-10-14T01:38:27.145Z,13.50
2022-10-14T01:41:27.053Z,13.50
2022-10-14T01:43:56.458Z,13.50
2022-10-14T01:46:25.577Z,13.60
2022-10-14T01:48:56.230Z,13.50
2022-10-14T01:51:30.753Z,13.60
2022-10-14T01:54:11.163Z,13.60
2022-10-14T01:56:40.709Z,13.60
2022-10-14T01:59:10.191Z,13.60
2022-10-14T02:01:37.006Z,13.60
2022-10-14T02:04:13.249Z,13.60
2022-10-14T02:06:43.192Z,13.60
2022-10-14T02:09:12.969Z,13.60
2022-10-14T02:12:01.161Z,13.60
2022-10-14T02:14:32.497Z,13.60
2022-10-14T02:17:29.460Z,13.60
2022-10-14T02:20:05.765Z,13.60
2022-10-14T02:22:43.282Z,13.70
2022-10-14T02:25:18.838Z,13.70
2022-10-14T02:27:47.087Z,13.70
2022-10-14T02:30:16.040Z,13.70
2022-10-14T02:32:44.089Z,13.70
2022-10-14T02:35:12.491Z,13.70
2022-10-14T02:37:40.495Z,13.80
2022-10-14T02:40:44.536Z,13.80
2022-10-14T02:43:11.819Z,13.80
2022-10-14T02:45:40.819Z,13.80
2022-10-14T02:48:07.842Z,13.80
2022-10-14T02:50:34.593Z,13.80
2022-10-14T02:53:01.442Z,13.80
2022-10-14T02:55:28.418Z,13.80
2022-10-14T02:57:55.175Z,13.80
2022-10-14T03:00:22.183Z,13.80
2022-10-14T03:02:48.883Z,13.80
2022-10-14T03:05:15.656Z,13.80
2022-10-14T03:07:42.310Z,13.90
2022-10-14T03:10:09.281Z,13.80
2022-10-14T03:12:36.076Z,13.80
2022-10-14T03:15:03.569Z,13.80
2022-10-14T03:17:30.576Z,13.80
2022-10-14T03:19:58.443Z,13.80
2022-10-14T03:22:25.691Z,13.90
2022-10-14T03:24:52.347Z,13.90
2022-10-14T03:27:19.043Z,13.80
2022-10-14T03:29:45.695Z,13.90
2022-10-14T03:32:12.383Z,13.90
2022-10-14T03:34:39.021Z,13.90
2022-10-14T03:37:05.912Z,13.90
2022-10-14T03:39:32.585Z,13.90
2022-10-14T03:41:59.217Z,13.90
2022-10-14T03:44:25.903Z,14.00
2022-10-14T03:46:52.698Z,14.00
2022-10-14T03:49:19.374Z,14.00
2022-10-14T03:51:46.097Z,14.00
2022-10-14T03:54:12.861Z,14.00
2022-10-14T03:56:39.502Z,14.10
2022-10-14T03:59:06.209Z,14.10
2022-10-14T04:01:32.954Z,14.10
2022-10-14T04:03:59.663Z,14.00
2022-10-14T04:06:26.379Z,14.00
2022-10-14T04:08:53.113Z,14.00
2022-10-14T04:11:19.798Z,14.00
2022-10-14T04:13:46.449Z,14.00
2022-10-14T04:16:13.232Z,14.00
2022-10-14T04:18:40.321Z,14.00
2022-10-14T04:21:10.813Z,14.00
2022-10-14T04:23:37.766Z,14.10
2022-10-14T04:26:05.883Z,14.10
2022-10-14T04:28:33.194Z,14.00
2022-10-14T04:30:59.945Z,14.00
2022-10-14T04:33:27.158Z,14.10
2022-10-14T04:36:01.063Z,14.10
2022-10-14T04:38:28.579Z,14.10
2022-10-14T04:40:55.817Z,14.10
2022-10-14T04:43:22.779Z,14.20
2022-10-14T04:45:50.125Z,14.20
2022-10-14T04:48:18.152Z,14.10
2022-10-14T04:50:44.793Z,14.20
2022-10-14T04:53:13.647Z,14.10
2022-10-14T04:55:41.380Z,14.20
2022-10-14T04:58:08.057Z,14.20
2022-10-14T05:00:34.960Z,14.10
2022-10-14T05:03:01.655Z,14.10
2022-10-14T05:05:28.411Z,14.20
2022-10-14T05:07:55.106Z,14.10
2022-10-14T05:10:21.973Z,14.10
2022-10-14T05:12:48.818Z,14.20
2022-10-14T05:15:15.933Z,14.20
2022-10-14T05:17:44.733Z,14.20
2022-10-14T05:20:12.185Z,14.20
2022-10-14T05:22:38.976Z,14.20
2022-10-14T05:25:06.280Z,14.20
2022-10-14T05:27:32.985Z,14.10
2022-10-14T05:29:59.720Z,14.20
2022-10-14T05:32:26.416Z,14.20
2022-10-14T05:34:53.152Z,14.20
2022-10-14T05:37:19.854Z,14.20
2022-10-14T05:39:46.559Z,14.10
2022-10-14T05:42:13.259Z,14.10
2022-10-14T05:44:39.984Z,14.10
2022-10-14T05:47:06.629Z,14.10
2022-10-14T05:49:33.395Z,14.10
2022-10-14T05:52:00.386Z,14.20
2022-10-14T05:54:27.573Z,14.20
2022-10-14T05:56:54.314Z,14.20
2022-10-14T05:59:21.698Z,14.20
2022-10-14T06:01:48.327Z,14.20
2022-10-14T06:04:19.929Z,14.30
2022-10-14T06:06:46.969Z,14.30
2022-10-14T06:09:14.639Z,14.20
2022-10-14T06:11:41.350Z,14.30
2022-10-14T06:14:08.111Z,14.30
2022-10-14T06:16:35.166Z,14.30
2022-10-14T06:19:01.955Z,14.30
2022-10-14T06:21:28.870Z,14.30
2022-10-14T06:23:55.633Z,14.30
2022-10-14T06:26:22.314Z,14.20
2022-10-14T06:28:49.057Z,14.30
2022-10-14T06:31:15.864Z,14.30
2022-10-14T06:33:44.085Z,14.30
2022-10-14T06:36:11.969Z,14.30
2022-10-14T06:38:38.655Z,14.30
2022-10-14T06:41:05.488Z,14.20
2022-10-14T06:43:32.191Z,14.20
2022-10-14T06:45:59.507Z,14.20
2022-10-14T06:48:26.149Z,14.20
2022-10-14T06:50:53.212Z,14.20
2022-10-14T06:53:20.320Z,14.20
2022-10-14T06:55:47.163Z,14.20
2022-10-14T06:58:13.848Z,14.20
2022-10-14T07:00:44.302Z,14.20
2022-10-14T07:03:13.938Z,14.20
2022-10-14T07:05:40.675Z,14.20
2022-10-14T07:08:09.130Z,14.20
2022-10-14T07:10:39.325Z,14.20
2022-10-14T07:13:05.974Z,14.20
2022-10-14T07:15:35.435Z,14.20
2022-10-14T07:18:04.641Z,14.20
2022-10-14T07:20:31.453Z,14.20
2022-10-14T07:22:58.243Z,14.10
2022-10-14T07:25:24.966Z,14.20
2022-10-14T07:27:54.706Z,14.20
2022-10-14T07:30:21.528Z,14.20
2022-10-14T07:32:48.348Z,14.20
2022-10-14T07:35:15.433Z,14.30
2022-10-14T07:37:42.262Z,14.30
2022-10-14T07:40:09.901Z,14.30
2022-10-14T07:42:36.637Z,14.30
2022-10-14T07:45:04.742Z,14.30
2022-10-14T07:47:33.528Z,14.30
2022-10-14T07:50:01.906Z,14.40
2022-10-14T07:52:28.621Z,14.30
2022-10-14T07:54:55.358Z,14.40
2022-10-14T07:57:23.423Z,14.40
2022-10-14T07:59:52.544Z,14.50
2022-10-14T08:02:19.534Z,14.50
2022-10-14T08:04:47.186Z,14.50
2022-10-14T08:07:16.555Z,14.60
2022-10-14T08:09:43.265Z,14.70
2022-10-14T08:12:10.145Z,14.60
2022-10-14T08:14:37.445Z,14.70
2022-10-14T08:17:04.233Z,14.80
2022-10-14T08:19:31.358Z,14.90
2022-10-14T08:21:58.024Z,14.90
2022-10-14T08:24:24.775Z,14.90
2022-10-14T08:26:52.474Z,14.90
2022-10-14T08:29:19.658Z,14.90
2022-10-14T08:31:47.086Z,15.00
2022-10-14T08:34:14.029Z,15.00
2022-10-14T08:36:41.098Z,15.10
2022-10-14T08:42:09.108Z,15.20
2022-10-14T08:44:59.174Z,15.20
2022-10-14T08:47:39.836Z,15.30
2022-10-14T08:50:31.980Z,15.30
2022-10-14T08:53:22.327Z,15.40
2022-10-14T08:55:54.738Z,15.40
2022-10-14T08:58:28.810Z,15.50
2022-10-14T09:00:56.515Z,15.50
2022-10-14T09:03:33.389Z,15.50
2022-10-14T09:06:04.917Z,15.60
2022-10-14T09:08:41.969Z,15.60
2022-10-14T09:11:19.057Z,15.70
2022-10-14T09:13:59.661Z,15.70
2022-10-14T09:16:30.998Z,15.70
2022-10-14T09:19:02.588Z,15.80
2022-10-14T09:21:51.534Z,15.80
2022-10-14T09:24:32.634Z,15.80
2022-10-14T09:27:11.515Z,15.90
2022-10-14T09:29:59.677Z,15.90
2022-10-14T09:32:35.118Z,15.90
2022-10-14T09:35:03.464Z,16.00
2022-10-14T09:37:42.892Z,16.00
2022-10-14T09:40:09.743Z,16.10
2022-10-14T09:43:11.294Z,16.10
2022-10-14T09:45:51.613Z,16.10
2022-10-14T09:48:42.376Z,16.20
2022-10-14T09:51:10.550Z,16.20
2022-10-14T09:53:45.402Z,16.40
2022-10-14T09:56:12.657Z,16.40
2022-10-14T09:58:55.124Z,16.40
2022-10-14T10:01:24.662Z,16.50
2022-10-14T10:03:52.857Z,16.60
2022-10-14T10:06:26.442Z,16.70
2022-10-14T10:08:53.067Z,16.70
2022-10-14T10:11:40.082Z,16.70
2022-10-14T10:14:28.056Z,16.80
2022-10-14T10:17:19.360Z,16.80
2022-10-14T10:19:52.709Z,16.80
2022-10-14T10:25:14.912Z,16.90
2022-10-14T10:27:46.683Z,17.00
2022-10-14T10:30:27.961Z,16.90
2022-10-14T10:33:28.045Z,16.80
2022-10-14T10:36:22.938Z,16.80
2022-10-14T10:39:03.755Z,16.80
2022-10-14T10:41:40.986Z,16.90
2022-10-14T10:44:28.456Z,16.80
2022-10-14T10:47:41.213Z,16.90
2022-10-14T10:50:27.299Z,16.90
2022-10-14T10:53:04.081Z,16.90
2022-10-14T10:55:57.802Z,16.80
2022-10-14T10:58:40.990Z,16.80
2022-10-14T11:01:39.189Z,16.80
2022-10-14T11:04:33.641Z,16.80
2022-10-14T11:07:42.188Z,16.90
2022-10-14T11:10:54.327Z,16.90
2022-10-14T11:13:35.829Z,16.90
2022-10-14T11:16:18.170Z,16.90
2022-10-14T11:18:51.058Z,16.80
2022-10-14T11:21:39.578Z,16.80
2022-10-14T11:24:13.098Z,16.80
2022-10-14T11:26:46.675Z,16.70
2022-10-14T11:29:20.354Z,16.70
2022-10-14T11:32:34.458Z,16.70
2022-10-14T11:35:11.191Z,16.80
2022-10-14T11:37:56.501Z,16.70
2022-10-14T11:40:31.900Z,16.80
2022-10-14T11:43:07.778Z,16.80
2022-10-14T11:45:52.943Z,16.80
2022-10-14T11:48:32.954Z,16.80
2022-10-14T11:51:11.606Z,16.80
2022-10-14T11:53:57.042Z,16.80
2022-10-14T11:56:39.821Z,16.80
2022-10-14T11:59:47.250Z,16.90
2022-10-14T12:02:32.012Z,16.80
2022-10-14T12:05:07.274Z,16.80
2022-10-14T12:07:43.555Z,16.80
2022-10-14T12:10:44.316Z,16.80
2022-10-14T12:13:21.119Z,16.80
2022-10-14T12:15:51.737Z,16.90
2022-10-14T12:18:22.745Z,16.90
2022-10-14T12:21:00.721Z,16.80
2022-10-14T12:23:39.624Z,16.90
2022-10-14T12:26:24.738Z,16.80
2022-10-14T12:28:54.030Z,16.70
2022-10-14T12:31:39.932Z,16.70
2022-10-14T12:34:15.712Z,16.70
2022-10-14T12:36:47.115Z,16.70
2022-10-14T12:39:20.063Z,16.70
2022-10-14T12:42:06.847Z,16.70
2022-10-14T12:44:41.471Z,16.60
2022-10-14T12:47:21.046Z,16.60
2022-10-14T12:49:52.076Z,16.60
2022-10-14T12:52:26.479Z,16.60
2022-10-14T12:54:54.076Z,16.70
2022-10-14T12:57:29.392Z,16.80
2022-10-14T13:00:00.042Z,16.90
2022-10-14T13:02:32.650Z,16.90
2022-10-14T13:05:08.521Z,16.90
2022-10-14T13:07:41.071Z,16.90
2022-10-14T13:10:27.176Z,16.90
2022-10-14T13:12:54.013Z,16.90
2022-10-14T13:15:34.694Z,17.00
2022-10-14T13:18:40.096Z,17.10
2022-10-14T13:21:09.454Z,17.10
2022-10-14T13:23:49.477Z,17.20
2022-10-14T13:26:51.192Z,17.30
2022-10-14T13:29:31.442Z,17.30
2022-10-14T13:32:28.608Z,17.20
2022-10-14T13:35:22.526Z,17.20
2022-10-14T13:38:02.620Z,17.10
2022-10-14T13:40:44.406Z,17.00
2022-10-14T13:43:29.732Z,17.00
2022-10-14T13:46:04.386Z,17.00
2022-10-14T13:48:39.106Z,17.00
2022-10-14T13:51:36.123Z,16.90
2022-10-14T13:54:16.095Z,16.90
2022-10-14T13:56:44.101Z,17.00
2022-10-14T13:59:43.396Z,16.90
2022-10-14T14:02:30.022Z,16.90
2022-10-14T14:04:58.991Z,16.80
2022-10-14T14:08:22.138Z,16.70
2022-10-14T14:10:24.264Z,16.80
2022-10-14T14:12:51.394Z,16.80
2022-10-14T14:15:25.236Z,16.70
2022-10-14T14:17:52.946Z,16.80
2022-10-14T14:20:26.339Z,16.80
2022-10-14T14:22:53.086Z,16.80
2022-10-14T14:25:36.925Z,16.90
2022-10-14T14:28:07.997Z,16.90
2022-10-14T14:30:37.339Z,17.00
2022-10-14T14:33:27.289Z,17.00
2022-10-14T14:36:03.340Z,17.00
2022-10-14T14:38:35.587Z,17.00
2022-10-14T14:41:27.086Z,17.00
2022-10-14T14:44:24.420Z,17.00
2022-10-14T14:46:55.354Z,16.90
2022-10-14T14:49:28.229Z,16.90
2022-10-14T14:51:56.118Z,16.90
2022-10-14T14:54:23.897Z,16.90
2022-10-14T14:57:04.404Z,16.90
2022-10-14T14:59:39.951Z,16.90
2022-10-14T15:02:19.107Z,17.00
2022-10-14T15:04:48.105Z,16.90
2022-10-14T15:07:21.262Z,16.90
2022-10-14T15:09:57.561Z,17.00
2022-10-14T15:12:42.088Z,17.00
2022-10-14T15:15:32.618Z,17.00
2022-10-14T15:18:19.624Z,16.90
2022-10-14T15:20:47.068Z,17.00
2022-10-14T15:23:37.642Z,17.00
2022-10-14T15:26:05.410Z,16.90
2022-10-14T15:28:33.789Z,16.90
2022-10-14T15:31:04.680Z,16.90
2022-10-14T15:33:33.042Z,16.80
2022-10-14T15:36:03.483Z,16.80
2022-10-14T15:41:04.267Z,16.80
2022-10-14T15:43:31.952Z,16.80
2022-10-14T15:46:18.413Z,16.80
2022-10-14T15:48:53.533Z,16.80
2022-10-14T15:51:23.419Z,16.80
2022-10-14T15:53:51.798Z,16.80
2022-10-14T15:56:20.777Z,16.80
2022-10-14T15:58:47.696Z,16.80
2022-10-14T16:01:20.954Z,16.90
2022-10-14T16:03:55.117Z,16.80
2022-10-14T16:06:22.880Z,16.90
2022-10-14T16:08:49.723Z,16.90
2022-10-14T16:11:26.510Z,16.90
2022-10-14T16:13:53.523Z,16.90
2022-10-14T16:16:41.594Z,16.80
2022-10-14T16:19:08.602Z,16.80
2022-10-14T16:21:35.465Z,16.80
2022-10-14T16:24:03.446Z,16.90
2022-10-14T16:26:31.077Z,16.80
2022-10-14T16:28:59.882Z,16.80
2022-10-14T16:31:26.893Z,16.80
2022-10-14T16:33:56.925Z,16.80
2022-10-14T16:36:24.933Z,16.80
2022-10-14T16:38:52.169Z,16.80
2022-10-14T16:41:19.071Z,16.80
2022-10-14T16:43:47.457Z,16.80
2022-10-14T16:46:15.698Z,16.80
2022-10-14T16:48:43.156Z,16.70
2022-10-14T16:51:10.050Z,16.70
2022-10-14T16:53:44.941Z,16.70
2022-10-14T16:56:35.992Z,16.70
2022-10-14T16:59:03.778Z,16.70
2022-10-14T17:01:31.099Z,16.60
2022-10-14T17:03:58.370Z,16.60
2022-10-14T17:06:25.886Z,16.60
2022-10-14T17:08:53.022Z,16.60
2022-10-14T17:11:20.243Z,16.50
2022-10-14T17:13:50.478Z,16.50
2022-10-14T17:16:17.247Z,16.50
2022-10-14T17:18:43.948Z,16.50
2022-10-14T17:21:12.198Z,16.50
2022-10-14T17:23:42.098Z,16.50
2022-10-14T17:26:14.049Z,16.50
2022-10-14T17:28:41.946Z,16.50
2022-10-14T17:31:13.609Z,16.40
2022-10-14T17:33:40.986Z,16.40
2022-10-14T17:36:08.390Z,16.50
2022-10-14T17:38:35.855Z,16.50
2022-10-14T17:41:04.679Z,16.50
2022-10-14T17:43:31.707Z,16.50
2022-10-14T17:48:42.731Z,16.40
2022-10-14T17:51:10.584Z,16.40
2022-10-14T17:53:38.483Z,16.40
2022-10-14T17:56:10.104Z,16.30
2022-10-14T17:58:36.814Z,16.40
2022-10-14T18:01:07.736Z,16.30
2022-10-14T18:03:35.762Z,16.30
2022-10-14T18:06:43.063Z,16.40
2022-10-14T18:09:11.396Z,16.30
2022-10-14T18:12:07.040Z,16.40
2022-10-14T18:14:27.947Z,16.30
2022-10-14T18:16:54.744Z,16.40
2022-10-14T18:19:21.539Z,16.40
2022-10-14T18:21:49.123Z,16.40
2022-10-14T18:24:15.970Z,16.40
2022-10-14T18:26:43.198Z,16.40
2022-10-14T18:29:10.030Z,16.40
2022-10-14T18:31:37.062Z,16.40
2022-10-14T18:34:03.980Z,16.40
2022-10-14T18:36:33.091Z,16.40
2022-10-14T18:39:02.242Z,16.40
2022-10-14T18:41:30.100Z,16.40
2022-10-14T18:43:59.910Z,16.40
2022-10-14T18:46:33.428Z,16.40
2022-10-14T18:49:01.386Z,16.40
2022-10-14T18:51:30.526Z,16.40
2022-10-14T18:54:00.149Z,16.40
2022-10-14T18:56:29.838Z,16.40
2022-10-14T18:59:05.250Z,16.40
2022-10-14T19:01:32.946Z,16.40
2022-10-14T19:03:59.974Z,16.40
2022-10-14T19:06:27.261Z,16.40
2022-10-14T19:08:54.378Z,16.30
2022-10-14T19:11:23.355Z,16.30
2022-10-14T19:13:52.740Z,16.20
2022-10-14T19:16:22.468Z,16.30
2022-10-14T19:18:53.713Z,16.30
2022-10-14T19:21:22.617Z,16.20
2022-10-14T19:23:50.226Z,16.20
2022-10-14T19:26:22.790Z,16.20
2022-10-14T19:28:50.202Z,16.20
2022-10-14T19:31:20.478Z,16.20
2022-10-14T19:33:48.219Z,16.20
2022-10-14T19:36:16.974Z,16.20
2022-10-14T19:38:57.971Z,16.20
2022-10-14T19:41:30.107Z,16.20
2022-10-14T19:43:58.249Z,16.20
2022-10-14T19:46:29.543Z,16.20
2022-10-14T19:49:02.306Z,16.20
2022-10-14T19:51:29.543Z,16.20
2022-10-14T19:53:57.585Z,16.20
2022-10-14T19:56:25.637Z,16.20
2022-10-14T19:58:55.470Z,16.10
2022-10-14T20:01:24.375Z,16.20
2022-10-14T20:03:51.950Z,16.10
2022-10-14T20:06:20.361Z,16.10
2022-10-14T20:08:50.234Z,16.10
2022-10-14T20:11:19.657Z,16.10
2022-10-14T20:13:46.465Z,16.10
2022-10-14T20:16:13.404Z,16.10
2022-10-14T20:18:40.495Z,16.10
2022-10-14T20:21:11.182Z,16.10
2022-10-14T20:23:38.807Z,16.10
2022-10-14T20:26:17.316Z,16.10
2022-10-14T20:28:44.612Z,16.10
2022-10-14T20:31:18.050Z,16.10
2022-10-14T20:33:45.302Z,16.10
2022-10-14T20:36:14.536Z,16.10
2022-10-14T20:38:41.994Z,16.10
2022-10-14T20:41:21.039Z,16.10
2022-10-14T20:43:48.495Z,16.10
2022-10-14T20:46:16.106Z,16.10
2022-10-14T20:48:43.538Z,16.10
2022-10-14T20:51:16.359Z,16.10
2022-10-14T20:53:43.158Z,16.00
2022-10-14T20:56:12.235Z,16.10
2022-10-14T20:58:39.428Z,16.00
2022-10-14T21:01:19.533Z,16.00
2022-10-14T21:03:47.848Z,16.00
2022-10-14T21:06:20.202Z,16.00
2022-10-14T21:08:49.542Z,16.10
2022-10-14T21:11:18.829Z,16.10
2022-10-14T21:13:51.563Z,16.10
2022-10-14T21:16:30.446Z,16.10
2022-10-14T21:19:00.019Z,16.10
2022-10-14T21:21:28.722Z,16.20
2022-10-14T21:23:56.215Z,16.20
2022-10-14T21:26:23.888Z,16.20
2022-10-14T21:28:50.718Z,16.10
2022-10-14T21:31:19.212Z,16.20
2022-10-14T21:33:47.709Z,16.10
2022-10-14T21:36:16.236Z,16.10
2022-10-14T21:38:43.090Z,16.10
2022-10-14T21:41:10.145Z,16.10
2022-10-14T21:43:38.662Z,16.10
2022-10-14T21:46:11.010Z,16.10
2022-10-14T21:48:37.929Z,16.10
2022-10-14T21:51:13.179Z,16.10
2022-10-14T21:53:41.444Z,16.10
2022-10-14T21:56:09.318Z,16.00
2022-10-14T21:58:36.626Z,16.00
2022-10-14T22:01:06.421Z,16.10
2022-10-14T22:03:33.698Z,16.00
2022-10-14T22:06:02.821Z,16.00
2022-10-14T22:08:37.896Z,16.00
2022-10-14T22:11:06.207Z,16.00
2022-10-14T22:13:35.333Z,16.00
2022-10-14T22:16:02.082Z,16.10
2022-10-14T22:18:31.161Z,16.00
2022-10-14T22:21:07.321Z,15.90
2022-10-14T22:23:34.448Z,16.00
2022-10-14T22:26:02.860Z,16.00
2022-10-14T22:28:30.741Z,15.90
2022-10-14T22:31:06.541Z,15.90
2022-10-14T22:33:37.911Z,16.00
2022-10-14T22:36:11.230Z,15.90
2022-10-14T22:38:39.950Z,15.90
2022-10-14T22:41:07.478Z,15.90
2022-10-14T22:43:35.329Z,15.90
2022-10-14T22:46:06.703Z,15.90
2022-10-14T22:48:34.841Z,15.90
2022-10-14T22:51:16.483Z,15.90
2022-10-14T22:53:44.762Z,15.90
2022-10-14T22:56:14.348Z,15.90
2022-10-14T22:58:41.158Z,15.90
2022-10-14T23:01:17.139Z,15.80
2022-10-14T23:03:43.998Z,15.80
2022-10-14T23:06:12.926Z,15.80
2022-10-14T23:08:40.708Z,15.80
2022-10-14T23:11:08.319Z,15.80
2022-10-14T23:13:35.081Z,15.80
2022-10-14T23:16:04.194Z,15.80
2022-10-14T23:18:34.218Z,15.90
2022-10-14T23:21:08.782Z,15.80
2022-10-14T23:23:35.627Z,15.80
2022-10-14T23:26:02.374Z,15.80
2022-10-14T23:28:29.223Z,15.80
2022-10-14T23:30:56.043Z,15.80
2022-10-14T23:33:22.759Z,15.80
2022-10-14T23:35:49.550Z,15.80
2022-10-14T23:38:16.494Z,15.80
2022-10-14T23:40:43.377Z,15.70
2022-10-14T23:43:10.064Z,15.70
2022-10-14T23:45:37.133Z,15.70
2022-10-14T23:48:04.279Z,15.70
2022-10-14T23:50:30.948Z,15.70
2022-10-14T23:52:57.728Z,15.70
2022-10-14T23:55:24.654Z,15.80
2022-10-14T23:57:51.412Z,15.80
